SU1167 SAWH-SABE
Flight info
| Callsign | SU1167 |
|---|---|
| Flight time | 3h 5m |
| Altitude | 33000 |
| Route | GRA2A GRA UT662 DIL UZ117 GBE GBE8R |
| Aircraft | B738/M-SDE3FGHIRWY/LB1 |
Departure
| Time | 2026-05-08 19:09 |
|---|---|
| Airport | Ushuaia - Malvinas Argentinas International Airport (SAWH) |
Arrival
| Time | 2026-05-08 22:14 |
|---|---|
| Airport | Aeroparque Jorge Newbery (SABE) |
| Time | Latitude | Longitude | Altitude | Speed | Heading |
|---|---|---|---|---|---|
| 2026-05-08 18:49 | -54.84016 | -68.31178 | 67 ft | 0 kts | 356° |
| 2026-05-08 19:01 | -54.84030 | -68.31177 | 70 ft | 2 kts | 356° |
| 2026-05-08 19:01 | -54.84045 | -68.31175 | 70 ft | 2 kts | 356° |
| 2026-05-08 19:01 | -54.84055 | -68.31175 | 70 ft | 1 kts | 356° |
| 2026-05-08 19:02 | -54.84069 | -68.31169 | 70 ft | 2 kts | 329° |
| 2026-05-08 19:02 | -54.84081 | -68.31152 | 70 ft | 2 kts | 304° |
| 2026-05-08 19:02 | -54.84087 | -68.31130 | 70 ft | 2 kts | 278° |
| 2026-05-08 19:02 | -54.84087 | -68.31115 | 71 ft | 1 kts | 263° |
| 2026-05-08 19:03 | -54.84087 | -68.31107 | 71 ft | 0 kts | 265° |
| 2026-05-08 19:05 | -54.84088 | -68.31140 | 70 ft | 5 kts | 265° |
| 2026-05-08 19:05 | -54.84094 | -68.31230 | 68 ft | 9 kts | 257° |
| 2026-05-08 19:05 | -54.84144 | -68.31309 | 66 ft | 11 kts | 189° |
| 2026-05-08 19:05 | -54.84228 | -68.31306 | 64 ft | 12 kts | 173° |
| 2026-05-08 19:06 | -54.84314 | -68.31297 | 64 ft | 12 kts | 178° |
| 2026-05-08 19:06 | -54.84386 | -68.31325 | 63 ft | 11 kts | 228° |
| 2026-05-08 19:06 | -54.84398 | -68.31462 | 60 ft | 12 kts | 272° |
| 2026-05-08 19:06 | -54.84383 | -68.31612 | 56 ft | 12 kts | 286° |
| 2026-05-08 19:07 | -54.84408 | -68.31702 | 54 ft | 8 kts | 145° |
| 2026-05-08 19:07 | -54.84410 | -68.31638 | 56 ft | 3 kts | 82° |
| 2026-05-08 19:07 | -54.84409 | -68.31622 | 56 ft | 0 kts | 82° |
| 2026-05-08 19:07 | -54.84405 | -68.31555 | 57 ft | 22 kts | 85° |
| 2026-05-08 19:08 | -54.84378 | -68.30928 | 71 ft | 80 kts | 85° |
| 2026-05-08 19:08 | -54.84330 | -68.29646 | 68 ft | 132 kts | 87° |
| 2026-05-08 19:08 | -54.84269 | -68.27785 | 102 ft | 169 kts | 85° |
| 2026-05-08 19:08 | -54.84208 | -68.25671 | 473 ft | 181 kts | 87° |
| 2026-05-08 19:09 | -54.84193 | -68.23507 | 1004 ft | 188 kts | 88° |
| 2026-05-08 19:09 | -54.84359 | -68.21215 | 1465 ft | 196 kts | 104° |
| 2026-05-08 19:09 | -54.84808 | -68.18945 | 1988 ft | 199 kts | 107° |
| 2026-05-08 19:09 | -54.85308 | -68.16722 | 2491 ft | 202 kts | 109° |
| 2026-05-08 19:10 | -54.85810 | -68.14418 | 2899 ft | 210 kts | 107° |
| 2026-05-08 19:10 | -54.86322 | -68.11969 | 3290 ft | 220 kts | 107° |
| 2026-05-08 19:10 | -54.86847 | -68.09442 | 3692 ft | 230 kts | 108° |
| 2026-05-08 19:10 | -54.87394 | -68.06782 | 4075 ft | 241 kts | 108° |
| 2026-05-08 19:11 | -54.87990 | -68.03972 | 4472 ft | 252 kts | 108° |
| 2026-05-08 19:11 | -54.88560 | -68.01089 | 4854 ft | 259 kts | 107° |
| 2026-05-08 19:11 | -54.89112 | -67.98027 | 5310 ft | 268 kts | 105° |
| 2026-05-08 19:11 | -54.89643 | -67.94943 | 5869 ft | 272 kts | 105° |
| 2026-05-08 19:12 | -54.90182 | -67.91773 | 6432 ft | 275 kts | 105° |
| 2026-05-08 19:12 | -54.90719 | -67.88599 | 7013 ft | 277 kts | 103° |
| 2026-05-08 19:12 | -54.90876 | -67.85319 | 7563 ft | 277 kts | 80° |
| 2026-05-08 19:12 | -54.90225 | -67.82201 | 8108 ft | 277 kts | 57° |
| 2026-05-08 19:13 | -54.88999 | -67.79655 | 8634 ft | 278 kts | 41° |
| 2026-05-08 19:13 | -54.87477 | -67.77640 | 9160 ft | 279 kts | 32° |
| 2026-05-08 19:13 | -54.85815 | -67.75909 | 9715 ft | 280 kts | 28° |
| 2026-05-08 19:13 | -54.84091 | -67.74318 | 10285 ft | 281 kts | 22° |
| 2026-05-08 19:14 | -54.82197 | -67.73385 | 10571 ft | 291 kts | 6° |
| 2026-05-08 19:14 | -54.80138 | -67.73254 | 10776 ft | 305 kts | 359° |
| 2026-05-08 19:14 | -54.77978 | -67.73333 | 10979 ft | 318 kts | 358° |
| 2026-05-08 19:14 | -54.75724 | -67.73426 | 11373 ft | 325 kts | 358° |
| 2026-05-08 19:15 | -54.73454 | -67.73489 | 11861 ft | 330 kts | 359° |
| 2026-05-08 19:15 | -54.71158 | -67.73525 | 12389 ft | 333 kts | 360° |
| 2026-05-08 19:15 | -54.68837 | -67.73547 | 12860 ft | 338 kts | 360° |
| 2026-05-08 19:15 | -54.66508 | -67.73566 | 13402 ft | 341 kts | 360° |
| 2026-05-08 19:16 | -54.64112 | -67.73587 | 13908 ft | 345 kts | 360° |
| 2026-05-08 19:16 | -54.61701 | -67.73610 | 14458 ft | 348 kts | 0° |
| 2026-05-08 19:16 | -54.59304 | -67.73634 | 14971 ft | 352 kts | 0° |
| 2026-05-08 19:16 | -54.56842 | -67.73661 | 15425 ft | 358 kts | 360° |
| 2026-05-08 19:17 | -54.54339 | -67.73688 | 15854 ft | 364 kts | 0° |
| 2026-05-08 19:17 | -54.51801 | -67.73713 | 16366 ft | 367 kts | 0° |
| 2026-05-08 19:17 | -54.49271 | -67.73740 | 16914 ft | 368 kts | 360° |
| 2026-05-08 19:17 | -54.46686 | -67.73767 | 17331 ft | 374 kts | 0° |
| 2026-05-08 19:18 | -54.44084 | -67.73795 | 17758 ft | 379 kts | 0° |
| 2026-05-08 19:18 | -54.41429 | -67.73825 | 18202 ft | 383 kts | 0° |
| 2026-05-08 19:18 | -54.38805 | -67.73856 | 18738 ft | 383 kts | 0° |
| 2026-05-08 19:18 | -54.36116 | -67.73886 | 19096 ft | 390 kts | 0° |
| 2026-05-08 19:19 | -54.33387 | -67.73916 | 19533 ft | 393 kts | 0° |
| 2026-05-08 19:19 | -54.30658 | -67.73944 | 20023 ft | 394 kts | 0° |
| 2026-05-08 19:19 | -54.27942 | -67.73972 | 20478 ft | 397 kts | 0° |
| 2026-05-08 19:19 | -54.25147 | -67.74000 | 20879 ft | 401 kts | 0° |
| 2026-05-08 19:20 | -54.22394 | -67.74030 | 21334 ft | 402 kts | 0° |
| 2026-05-08 19:20 | -54.20503 | -67.74050 | 21603 ft | 405 kts | 0° |
| 2026-05-08 19:20 | -54.16745 | -67.74091 | 22041 ft | 412 kts | 0° |
| 2026-05-08 19:20 | -54.13894 | -67.74123 | 22530 ft | 412 kts | 0° |
| 2026-05-08 19:21 | -54.11027 | -67.74155 | 22952 ft | 413 kts | 0° |
| 2026-05-08 19:21 | -54.08144 | -67.74189 | 23349 ft | 416 kts | 0° |
| 2026-05-08 19:21 | -54.05242 | -67.74225 | 23665 ft | 420 kts | 0° |
| 2026-05-08 19:21 | -54.02346 | -67.74258 | 24036 ft | 423 kts | 1° |
| 2026-05-08 19:22 | -53.99390 | -67.74294 | 24218 ft | 430 kts | 1° |
| 2026-05-08 19:22 | -53.96412 | -67.74329 | 24720 ft | 429 kts | 0° |
| 2026-05-08 19:22 | -53.93435 | -67.74366 | 24950 ft | 434 kts | 1° |
| 2026-05-08 19:22 | -53.90395 | -67.74400 | 25200 ft | 440 kts | 0° |
| 2026-05-08 19:23 | -53.87338 | -67.74432 | 25515 ft | 442 kts | 0° |
| 2026-05-08 19:23 | -53.84225 | -67.74470 | 25755 ft | 448 kts | 0° |
| 2026-05-08 19:23 | -53.81102 | -67.74422 | 25989 ft | 452 kts | 4° |
| 2026-05-08 19:23 | -53.78014 | -67.73927 | 26369 ft | 451 kts | 11° |
| 2026-05-08 19:24 | -53.74994 | -67.72667 | 26595 ft | 452 kts | 21° |
| 2026-05-08 19:24 | -53.72099 | -67.70654 | 26856 ft | 452 kts | 30° |
| 2026-05-08 19:24 | -53.69288 | -67.68165 | 27164 ft | 452 kts | 34° |
| 2026-05-08 19:24 | -53.66581 | -67.65526 | 27416 ft | 455 kts | 35° |
| 2026-05-08 19:25 | -53.63847 | -67.62790 | 27727 ft | 456 kts | 35° |
| 2026-05-08 19:25 | -53.61129 | -67.60088 | 27933 ft | 461 kts | 35° |
| 2026-05-08 19:25 | -53.58321 | -67.57345 | 28252 ft | 463 kts | 35° |
| 2026-05-08 19:25 | -53.55507 | -67.54642 | 28410 ft | 468 kts | 34° |
| 2026-05-08 19:26 | -53.52652 | -67.51946 | 28695 ft | 470 kts | 34° |
| 2026-05-08 19:26 | -53.49795 | -67.49283 | 28989 ft | 472 kts | 34° |
| 2026-05-08 19:26 | -53.46921 | -67.46632 | 29161 ft | 476 kts | 33° |
| 2026-05-08 19:26 | -53.43992 | -67.43954 | 29519 ft | 476 kts | 33° |
| 2026-05-08 19:27 | -53.41088 | -67.41316 | 29742 ft | 479 kts | 33° |
| 2026-05-08 19:27 | -53.38170 | -67.38672 | 29991 ft | 482 kts | 32° |
| 2026-05-08 19:27 | -53.35228 | -67.36014 | 30125 ft | 487 kts | 33° |
| 2026-05-08 19:27 | -53.32240 | -67.33321 | 30400 ft | 488 kts | 32° |
| 2026-05-08 19:28 | -53.29245 | -67.30625 | 30634 ft | 490 kts | 32° |
| 2026-05-08 19:28 | -53.26250 | -67.27936 | 30794 ft | 494 kts | 31° |
| 2026-05-08 19:28 | -53.23189 | -67.25193 | 31059 ft | 495 kts | 31° |
| 2026-05-08 19:28 | -53.20140 | -67.22464 | 31183 ft | 500 kts | 32° |
| 2026-05-08 19:29 | -53.17091 | -67.19741 | 31500 ft | 499 kts | 31° |
| 2026-05-08 19:29 | -53.14035 | -67.17020 | 31698 ft | 502 kts | 32° |
| 2026-05-08 19:29 | -53.10925 | -67.14253 | 31880 ft | 505 kts | 32° |
| 2026-05-08 19:29 | -53.07855 | -67.11523 | 32109 ft | 506 kts | 31° |
| 2026-05-08 19:30 | -53.04731 | -67.08753 | 32328 ft | 508 kts | 32° |
| 2026-05-08 19:30 | -53.01642 | -67.06016 | 32578 ft | 509 kts | 32° |
| 2026-05-08 19:30 | -52.98515 | -67.03249 | 32671 ft | 513 kts | 32° |
| 2026-05-08 19:30 | -52.95372 | -67.00474 | 33008 ft | 511 kts | 31° |
| 2026-05-08 19:31 | -52.92233 | -66.97708 | 33303 ft | 511 kts | 32° |
| 2026-05-08 19:31 | -52.89109 | -66.94958 | 33459 ft | 512 kts | 32° |
| 2026-05-08 19:31 | -52.85957 | -66.92184 | 33467 ft | 514 kts | 32° |
| 2026-05-08 19:32 | -52.79729 | -66.86719 | 33465 ft | 508 kts | 32° |
| 2026-05-08 19:32 | -52.73506 | -66.81252 | 33465 ft | 511 kts | 32° |
| 2026-05-08 19:33 | -52.67260 | -66.75772 | 33464 ft | 505 kts | 31° |
| 2026-05-08 19:33 | -52.61076 | -66.70369 | 33464 ft | 507 kts | 32° |
| 2026-05-08 19:34 | -52.54895 | -66.64988 | 33461 ft | 503 kts | 31° |
| 2026-05-08 19:34 | -52.48744 | -66.59650 | 33460 ft | 502 kts | 32° |
| 2026-05-08 19:35 | -52.42556 | -66.54293 | 33454 ft | 502 kts | 32° |
| 2026-05-08 19:35 | -52.36409 | -66.48986 | 33447 ft | 499 kts | 32° |
| 2026-05-08 19:36 | -52.30271 | -66.43710 | 33447 ft | 499 kts | 32° |
| 2026-05-08 19:36 | -52.24168 | -66.38483 | 33448 ft | 497 kts | 32° |
| 2026-05-08 19:37 | -52.18066 | -66.33269 | 33450 ft | 497 kts | 31° |
| 2026-05-08 19:37 | -52.12006 | -66.28112 | 33446 ft | 494 kts | 31° |
| 2026-05-08 19:38 | -52.05931 | -66.22952 | 33447 ft | 492 kts | 31° |
| 2026-05-08 19:38 | -51.99911 | -66.17852 | 33445 ft | 492 kts | 31° |
| 2026-05-08 19:39 | -51.93879 | -66.12762 | 33438 ft | 487 kts | 31° |
| 2026-05-08 19:39 | -51.87861 | -66.07699 | 33439 ft | 489 kts | 31° |
| 2026-05-08 19:40 | -51.81860 | -66.02668 | 33437 ft | 489 kts | 31° |
| 2026-05-08 19:40 | -51.75739 | -65.97878 | 33434 ft | 488 kts | 25° |
| 2026-05-08 19:41 | -51.69416 | -65.93996 | 33431 ft | 488 kts | 22° |
| 2026-05-08 19:41 | -51.63020 | -65.90356 | 33441 ft | 487 kts | 21° |
| 2026-05-08 19:42 | -51.56648 | -65.86693 | 33433 ft | 487 kts | 22° |
| 2026-05-08 19:42 | -51.50343 | -65.83001 | 33428 ft | 486 kts | 22° |
| 2026-05-08 19:43 | -51.44028 | -65.79265 | 33424 ft | 481 kts | 22° |
| 2026-05-08 19:43 | -51.37739 | -65.75532 | 33419 ft | 483 kts | 22° |
| 2026-05-08 19:44 | -51.31500 | -65.71837 | 33419 ft | 481 kts | 22° |
| 2026-05-08 19:44 | -51.25219 | -65.68127 | 33415 ft | 480 kts | 22° |
| 2026-05-08 19:45 | -51.18963 | -65.64445 | 33411 ft | 481 kts | 22° |
| 2026-05-08 19:45 | -51.12703 | -65.60773 | 33415 ft | 479 kts | 23° |
| 2026-05-08 19:46 | -51.06484 | -65.57134 | 33409 ft | 478 kts | 22° |
| 2026-05-08 19:46 | -50.97151 | -65.51691 | 33406 ft | 478 kts | 22° |
| 2026-05-08 19:47 | -50.90917 | -65.48069 | 33396 ft | 474 kts | 22° |
| 2026-05-08 19:47 | -50.84759 | -65.44501 | 33395 ft | 474 kts | 23° |
| 2026-05-08 19:48 | -50.78542 | -65.40906 | 33394 ft | 475 kts | 23° |
| 2026-05-08 19:48 | -50.72311 | -65.37316 | 33388 ft | 475 kts | 23° |
| 2026-05-08 19:49 | -50.66142 | -65.33772 | 33390 ft | 475 kts | 22° |
| 2026-05-08 19:49 | -50.59947 | -65.30223 | 33394 ft | 474 kts | 22° |
| 2026-05-08 19:50 | -50.53744 | -65.26680 | 33390 ft | 475 kts | 22° |
| 2026-05-08 19:50 | -50.47517 | -65.23133 | 33386 ft | 476 kts | 22° |
| 2026-05-08 19:51 | -50.41302 | -65.19603 | 33374 ft | 474 kts | 22° |
| 2026-05-08 19:51 | -50.35136 | -65.16110 | 33375 ft | 476 kts | 22° |
| 2026-05-08 19:52 | -50.28916 | -65.12596 | 33371 ft | 474 kts | 22° |
| 2026-05-08 19:52 | -50.22695 | -65.09092 | 33365 ft | 475 kts | 22° |
| 2026-05-08 19:53 | -50.16535 | -65.05633 | 33362 ft | 474 kts | 22° |
| 2026-05-08 19:53 | -50.10327 | -65.02155 | 33364 ft | 474 kts | 23° |
| 2026-05-08 19:54 | -50.04150 | -64.98704 | 33349 ft | 475 kts | 23° |
| 2026-05-08 19:54 | -49.97934 | -64.95242 | 33342 ft | 476 kts | 23° |
| 2026-05-08 19:55 | -49.91705 | -64.91781 | 33344 ft | 477 kts | 23° |
| 2026-05-08 19:55 | -49.85485 | -64.88335 | 33352 ft | 475 kts | 23° |
| 2026-05-08 19:56 | -49.79266 | -64.84898 | 33351 ft | 477 kts | 23° |
| 2026-05-08 19:56 | -49.73016 | -64.81452 | 33339 ft | 477 kts | 23° |
| 2026-05-08 19:57 | -49.66775 | -64.78022 | 33336 ft | 477 kts | 24° |
| 2026-05-08 19:57 | -49.60529 | -64.74599 | 33335 ft | 479 kts | 23° |
| 2026-05-08 19:58 | -49.54289 | -64.71192 | 33329 ft | 477 kts | 24° |
| 2026-05-08 19:58 | -49.48044 | -64.67789 | 33322 ft | 477 kts | 24° |
| 2026-05-08 19:59 | -49.41797 | -64.64394 | 33318 ft | 477 kts | 24° |
| 2026-05-08 19:59 | -49.35555 | -64.61010 | 33317 ft | 478 kts | 24° |
| 2026-05-08 20:00 | -49.29303 | -64.57628 | 33323 ft | 478 kts | 23° |
| 2026-05-08 20:00 | -49.23077 | -64.54274 | 33311 ft | 476 kts | 24° |
| 2026-05-08 20:01 | -49.16811 | -64.50905 | 33315 ft | 479 kts | 24° |
| 2026-05-08 20:01 | -49.10572 | -64.47559 | 33307 ft | 478 kts | 24° |
| 2026-05-08 20:02 | -49.04325 | -64.44218 | 33301 ft | 477 kts | 24° |
| 2026-05-08 20:02 | -48.98040 | -64.40866 | 33300 ft | 477 kts | 24° |
| 2026-05-08 20:03 | -48.91814 | -64.37554 | 33299 ft | 477 kts | 24° |
| 2026-05-08 20:03 | -48.85544 | -64.34228 | 33298 ft | 477 kts | 22° |
| 2026-05-08 20:04 | -48.79327 | -64.30939 | 33287 ft | 475 kts | 22° |
| 2026-05-08 20:04 | -48.73106 | -64.27659 | 33280 ft | 474 kts | 22° |
| 2026-05-08 20:05 | -48.66911 | -64.24398 | 33270 ft | 470 kts | 22° |
| 2026-05-08 20:05 | -48.60750 | -64.21164 | 33270 ft | 471 kts | 22° |
| 2026-05-08 20:06 | -48.54571 | -64.17927 | 33267 ft | 470 kts | 22° |
| 2026-05-08 20:06 | -48.48404 | -64.14704 | 33265 ft | 469 kts | 22° |
| 2026-05-08 20:07 | -48.42260 | -64.11504 | 33259 ft | 468 kts | 22° |
| 2026-05-08 20:07 | -48.36130 | -64.08319 | 33255 ft | 466 kts | 22° |
| 2026-05-08 20:08 | -48.30042 | -64.05166 | 33251 ft | 465 kts | 22° |
| 2026-05-08 20:08 | -48.23945 | -64.02013 | 33240 ft | 462 kts | 22° |
| 2026-05-08 20:09 | -48.17895 | -63.98895 | 33242 ft | 459 kts | 21° |
| 2026-05-08 20:09 | -48.11908 | -63.95815 | 33232 ft | 458 kts | 22° |
| 2026-05-08 20:10 | -48.05859 | -63.92710 | 33225 ft | 457 kts | 21° |
| 2026-05-08 20:10 | -47.99922 | -63.89673 | 33212 ft | 456 kts | 21° |
| 2026-05-08 20:11 | -47.93920 | -63.86606 | 33214 ft | 455 kts | 21° |
| 2026-05-08 20:11 | -47.87968 | -63.83576 | 33201 ft | 450 kts | 21° |
| 2026-05-08 20:12 | -47.82050 | -63.80569 | 33201 ft | 450 kts | 22° |
| 2026-05-08 20:12 | -47.76146 | -63.77573 | 33201 ft | 449 kts | 22° |
| 2026-05-08 20:13 | -47.70269 | -63.74601 | 33187 ft | 444 kts | 21° |
| 2026-05-08 20:13 | -47.64417 | -63.71648 | 33200 ft | 447 kts | 21° |
| 2026-05-08 20:14 | -47.58562 | -63.68702 | 33181 ft | 441 kts | 21° |
| 2026-05-08 20:14 | -47.52794 | -63.65804 | 33187 ft | 442 kts | 21° |
| 2026-05-08 20:15 | -47.46966 | -63.62884 | 33187 ft | 440 kts | 21° |
| 2026-05-08 20:15 | -47.41206 | -63.60006 | 33176 ft | 436 kts | 21° |
| 2026-05-08 20:16 | -47.35512 | -63.57169 | 33160 ft | 432 kts | 21° |
| 2026-05-08 20:16 | -47.29832 | -63.54343 | 33168 ft | 435 kts | 21° |
| 2026-05-08 20:17 | -47.24100 | -63.51494 | 33169 ft | 433 kts | 21° |
| 2026-05-08 20:17 | -47.18415 | -63.48680 | 33155 ft | 430 kts | 21° |
| 2026-05-08 20:18 | -47.12774 | -63.45891 | 33147 ft | 430 kts | 21° |
| 2026-05-08 20:18 | -47.07111 | -63.43098 | 33146 ft | 427 kts | 20° |
| 2026-05-08 20:19 | -47.01533 | -63.40354 | 33139 ft | 424 kts | 20° |
| 2026-05-08 20:19 | -46.95930 | -63.37604 | 33131 ft | 423 kts | 20° |
| 2026-05-08 20:20 | -46.90363 | -63.34879 | 33127 ft | 425 kts | 20° |
| 2026-05-08 20:20 | -46.84757 | -63.32138 | 33121 ft | 423 kts | 20° |
| 2026-05-08 20:21 | -46.79217 | -63.29438 | 33118 ft | 423 kts | 20° |
| 2026-05-08 20:21 | -46.73665 | -63.26735 | 33117 ft | 423 kts | 20° |
| 2026-05-08 20:22 | -46.68103 | -63.24034 | 33109 ft | 421 kts | 19° |
| 2026-05-08 20:22 | -46.62568 | -63.21354 | 33101 ft | 420 kts | 20° |
| 2026-05-08 20:23 | -46.57040 | -63.18682 | 33094 ft | 418 kts | 20° |
| 2026-05-08 20:23 | -46.51501 | -63.16012 | 33097 ft | 418 kts | 19° |
| 2026-05-08 20:24 | -46.45995 | -63.13364 | 33100 ft | 419 kts | 19° |
| 2026-05-08 20:24 | -46.40494 | -63.10722 | 33087 ft | 418 kts | 19° |
| 2026-05-08 20:25 | -46.34970 | -63.08076 | 33075 ft | 417 kts | 19° |
| 2026-05-08 20:25 | -46.29484 | -63.05450 | 33069 ft | 414 kts | 19° |
| 2026-05-08 20:26 | -46.24006 | -63.02835 | 33070 ft | 416 kts | 19° |
| 2026-05-08 20:26 | -46.18541 | -63.00230 | 33053 ft | 414 kts | 19° |
| 2026-05-08 20:27 | -46.13089 | -62.97639 | 33058 ft | 415 kts | 19° |
| 2026-05-08 20:27 | -46.07605 | -62.95041 | 33063 ft | 415 kts | 19° |
| 2026-05-08 20:28 | -46.02140 | -62.92457 | 33037 ft | 412 kts | 19° |
| 2026-05-08 20:28 | -45.96721 | -62.89898 | 33048 ft | 412 kts | 20° |
| 2026-05-08 20:29 | -45.91264 | -62.87324 | 33032 ft | 413 kts | 20° |
| 2026-05-08 20:29 | -45.85840 | -62.84773 | 33040 ft | 413 kts | 20° |
| 2026-05-08 20:30 | -45.80387 | -62.82215 | 33033 ft | 412 kts | 20° |
| 2026-05-08 20:30 | -45.74952 | -62.79670 | 33015 ft | 413 kts | 20° |
| 2026-05-08 20:31 | -45.69516 | -62.77129 | 33005 ft | 411 kts | 20° |
| 2026-05-08 20:31 | -45.64058 | -62.74583 | 33009 ft | 411 kts | 20° |
| 2026-05-08 20:32 | -45.58620 | -62.72051 | 33005 ft | 412 kts | 20° |
| 2026-05-08 20:32 | -45.53183 | -62.69526 | 33003 ft | 411 kts | 20° |
| 2026-05-08 20:33 | -45.47747 | -62.67007 | 32996 ft | 411 kts | 20° |
| 2026-05-08 20:33 | -45.42319 | -62.64495 | 32997 ft | 410 kts | 20° |
| 2026-05-08 20:34 | -45.36897 | -62.61991 | 32983 ft | 411 kts | 21° |
| 2026-05-08 20:35 | -45.28779 | -62.58254 | 32965 ft | 411 kts | 21° |
| 2026-05-08 20:35 | -45.23347 | -62.55758 | 32970 ft | 411 kts | 21° |
| 2026-05-08 20:36 | -45.17924 | -62.53272 | 32975 ft | 412 kts | 21° |
| 2026-05-08 20:36 | -45.12460 | -62.50771 | 32958 ft | 409 kts | 21° |
| 2026-05-08 20:37 | -45.07074 | -62.48313 | 32950 ft | 410 kts | 21° |
| 2026-05-08 20:37 | -45.01650 | -62.45842 | 32958 ft | 410 kts | 21° |
| 2026-05-08 20:38 | -44.96247 | -62.43388 | 32952 ft | 410 kts | 21° |
| 2026-05-08 20:38 | -44.90813 | -62.40918 | 32952 ft | 411 kts | 21° |
| 2026-05-08 20:39 | -44.85386 | -62.38462 | 32940 ft | 408 kts | 21° |
| 2026-05-08 20:39 | -44.79975 | -62.36023 | 32937 ft | 410 kts | 21° |
| 2026-05-08 20:40 | -44.74569 | -62.33586 | 32933 ft | 409 kts | 21° |
| 2026-05-08 20:40 | -44.69164 | -62.31153 | 32921 ft | 409 kts | 21° |
| 2026-05-08 20:41 | -44.63757 | -62.28726 | 32920 ft | 407 kts | 21° |
| 2026-05-08 20:41 | -44.58347 | -62.26302 | 32903 ft | 409 kts | 21° |
| 2026-05-08 20:42 | -44.52944 | -62.23885 | 32906 ft | 408 kts | 21° |
| 2026-05-08 20:42 | -44.47538 | -62.21460 | 32906 ft | 408 kts | 21° |
| 2026-05-08 20:43 | -44.42152 | -62.19056 | 32890 ft | 406 kts | 21° |
| 2026-05-08 20:43 | -44.36785 | -62.16669 | 32890 ft | 405 kts | 21° |
| 2026-05-08 20:44 | -44.31449 | -62.14297 | 32889 ft | 407 kts | 22° |
| 2026-05-08 20:44 | -44.26043 | -62.11902 | 32891 ft | 404 kts | 21° |
| 2026-05-08 20:45 | -44.20716 | -62.09544 | 33115 ft | 402 kts | 22° |
| 2026-05-08 20:45 | -44.18087 | -62.08379 | 33239 ft | 402 kts | 22° |
| 2026-05-08 20:45 | -44.15423 | -62.07201 | 33361 ft | 401 kts | 22° |
| 2026-05-08 20:45 | -44.12748 | -62.06020 | 33476 ft | 400 kts | 22° |
| 2026-05-08 20:46 | -44.10105 | -62.04857 | 33594 ft | 397 kts | 22° |
| 2026-05-08 20:46 | -44.07503 | -62.03713 | 33711 ft | 395 kts | 23° |
| 2026-05-08 20:46 | -44.04880 | -62.02559 | 33826 ft | 393 kts | 22° |
| 2026-05-08 20:46 | -44.02293 | -62.01421 | 33940 ft | 395 kts | 23° |
| 2026-05-08 20:47 | -43.99670 | -62.00269 | 34070 ft | 393 kts | 22° |
| 2026-05-08 20:47 | -43.97083 | -61.99135 | 34186 ft | 393 kts | 23° |
| 2026-05-08 20:47 | -43.94457 | -61.97984 | 34291 ft | 394 kts | 23° |
| 2026-05-08 20:48 | -43.89264 | -61.95710 | 34495 ft | 394 kts | 22° |
| 2026-05-08 20:48 | -43.86638 | -61.94560 | 34603 ft | 397 kts | 22° |
| 2026-05-08 20:48 | -43.84023 | -61.93416 | 34701 ft | 399 kts | 22° |
| 2026-05-08 20:48 | -43.81370 | -61.92256 | 34809 ft | 400 kts | 22° |
| 2026-05-08 20:49 | -43.78703 | -61.91093 | 34837 ft | 401 kts | 22° |
| 2026-05-08 20:49 | -43.73383 | -61.88777 | 34848 ft | 407 kts | 22° |
| 2026-05-08 20:50 | -43.67928 | -61.86405 | 34838 ft | 413 kts | 22° |
| 2026-05-08 20:50 | -43.62421 | -61.84024 | 34829 ft | 414 kts | 22° |
| 2026-05-08 20:51 | -43.56940 | -61.81659 | 34828 ft | 415 kts | 23° |
| 2026-05-08 20:51 | -43.51416 | -61.79277 | 34821 ft | 414 kts | 22° |
| 2026-05-08 20:52 | -43.45927 | -61.76909 | 34820 ft | 416 kts | 22° |
| 2026-05-08 20:52 | -43.40447 | -61.74554 | 34804 ft | 414 kts | 22° |
| 2026-05-08 20:53 | -43.34880 | -61.72160 | 34784 ft | 421 kts | 22° |
| 2026-05-08 20:53 | -43.29315 | -61.69778 | 34785 ft | 418 kts | 23° |
| 2026-05-08 20:54 | -43.23777 | -61.67409 | 34790 ft | 420 kts | 22° |
| 2026-05-08 20:54 | -43.18209 | -61.65035 | 34785 ft | 419 kts | 23° |
| 2026-05-08 20:55 | -43.12654 | -61.62668 | 34763 ft | 420 kts | 22° |
| 2026-05-08 20:55 | -43.07065 | -61.60290 | 34758 ft | 420 kts | 23° |
| 2026-05-08 20:56 | -43.01505 | -61.57929 | 34754 ft | 420 kts | 23° |
| 2026-05-08 20:56 | -42.95912 | -61.55558 | 34763 ft | 426 kts | 23° |
| 2026-05-08 20:57 | -42.90277 | -61.53177 | 34749 ft | 423 kts | 23° |
| 2026-05-08 20:57 | -42.84659 | -61.50809 | 34750 ft | 426 kts | 23° |
| 2026-05-08 20:58 | -42.78979 | -61.48414 | 34730 ft | 428 kts | 23° |
| 2026-05-08 20:58 | -42.73308 | -61.46032 | 34744 ft | 427 kts | 23° |
| 2026-05-08 20:59 | -42.67616 | -61.43641 | 34736 ft | 432 kts | 22° |
| 2026-05-08 20:59 | -42.61867 | -61.41235 | 34724 ft | 432 kts | 22° |
| 2026-05-08 21:00 | -42.56108 | -61.38832 | 34729 ft | 436 kts | 22° |
| 2026-05-08 21:00 | -42.50338 | -61.36429 | 34723 ft | 436 kts | 22° |
| 2026-05-08 21:01 | -42.44544 | -61.34016 | 34703 ft | 436 kts | 21° |
| 2026-05-08 21:01 | -42.38710 | -61.31589 | 34700 ft | 441 kts | 21° |
| 2026-05-08 21:02 | -42.32851 | -61.29159 | 34702 ft | 441 kts | 21° |
| 2026-05-08 21:02 | -42.26970 | -61.26728 | 34700 ft | 441 kts | 21° |
| 2026-05-08 21:03 | -42.21093 | -61.24298 | 34711 ft | 444 kts | 21° |
| 2026-05-08 21:03 | -42.15202 | -61.21870 | 34704 ft | 443 kts | 21° |
| 2026-05-08 21:04 | -42.09328 | -61.19455 | 34701 ft | 444 kts | 21° |
| 2026-05-08 21:04 | -42.03411 | -61.17024 | 34694 ft | 447 kts | 21° |
| 2026-05-08 21:05 | -41.97450 | -61.14581 | 34692 ft | 446 kts | 20° |
| 2026-05-08 21:05 | -41.91533 | -61.12161 | 34689 ft | 449 kts | 20° |
| 2026-05-08 21:06 | -41.85516 | -61.09705 | 34688 ft | 449 kts | 20° |
| 2026-05-08 21:06 | -41.79545 | -61.07274 | 34678 ft | 451 kts | 20° |
| 2026-05-08 21:07 | -41.73548 | -61.04832 | 34679 ft | 453 kts | 20° |
| 2026-05-08 21:07 | -41.67507 | -61.02382 | 34663 ft | 453 kts | 20° |
| 2026-05-08 21:08 | -41.61509 | -60.99953 | 34667 ft | 454 kts | 20° |
| 2026-05-08 21:08 | -41.55442 | -60.97499 | 34669 ft | 455 kts | 20° |
| 2026-05-08 21:09 | -41.49364 | -60.95047 | 34657 ft | 457 kts | 20° |
| 2026-05-08 21:09 | -41.43299 | -60.92605 | 34632 ft | 459 kts | 20° |
| 2026-05-08 21:10 | -41.37180 | -60.90145 | 34629 ft | 460 kts | 20° |
| 2026-05-08 21:10 | -41.31037 | -60.87682 | 34632 ft | 460 kts | 20° |
| 2026-05-08 21:11 | -41.24905 | -60.85228 | 34623 ft | 461 kts | 19° |
| 2026-05-08 21:11 | -41.18760 | -60.82773 | 34618 ft | 462 kts | 19° |
| 2026-05-08 21:12 | -41.12648 | -60.80338 | 34623 ft | 461 kts | 19° |
| 2026-05-08 21:12 | -41.06480 | -60.77884 | 34623 ft | 461 kts | 19° |
| 2026-05-08 21:13 | -41.00357 | -60.75453 | 34618 ft | 461 kts | 19° |
| 2026-05-08 21:13 | -40.94199 | -60.73012 | 34638 ft | 462 kts | 19° |
| 2026-05-08 21:14 | -40.88054 | -60.70580 | 34627 ft | 463 kts | 19° |
| 2026-05-08 21:14 | -40.81871 | -60.68140 | 34613 ft | 464 kts | 19° |
| 2026-05-08 21:15 | -40.75678 | -60.65699 | 34624 ft | 466 kts | 19° |
| 2026-05-08 21:15 | -40.69456 | -60.63252 | 34620 ft | 465 kts | 19° |
| 2026-05-08 21:16 | -40.63236 | -60.60810 | 34619 ft | 467 kts | 19° |
| 2026-05-08 21:16 | -40.57006 | -60.58369 | 34609 ft | 466 kts | 18° |
| 2026-05-08 21:17 | -40.50801 | -60.55943 | 34604 ft | 467 kts | 18° |
| 2026-05-08 21:17 | -40.44567 | -60.53446 | 34606 ft | 468 kts | 19° |
| 2026-05-08 21:18 | -40.38351 | -60.50804 | 34612 ft | 469 kts | 20° |
| 2026-05-08 21:18 | -40.32155 | -60.48141 | 34609 ft | 469 kts | 19° |
| 2026-05-08 21:19 | -40.25982 | -60.45503 | 34607 ft | 469 kts | 19° |
| 2026-05-08 21:19 | -40.19770 | -60.42868 | 34602 ft | 469 kts | 19° |
| 2026-05-08 21:20 | -40.13588 | -60.40258 | 34598 ft | 470 kts | 19° |
| 2026-05-08 21:20 | -40.07361 | -60.37638 | 34593 ft | 468 kts | 19° |
| 2026-05-08 21:21 | -40.01172 | -60.35039 | 34595 ft | 469 kts | 18° |
| 2026-05-08 21:21 | -39.94989 | -60.32449 | 34601 ft | 469 kts | 18° |
| 2026-05-08 21:22 | -39.88771 | -60.29850 | 34605 ft | 468 kts | 18° |
| 2026-05-08 21:22 | -39.82533 | -60.27247 | 34596 ft | 470 kts | 18° |
| 2026-05-08 21:23 | -39.76311 | -60.24656 | 34592 ft | 469 kts | 18° |
| 2026-05-08 21:23 | -39.70115 | -60.22079 | 34600 ft | 469 kts | 18° |
| 2026-05-08 21:24 | -39.63895 | -60.19499 | 34599 ft | 469 kts | 17° |
| 2026-05-08 21:24 | -39.57700 | -60.16933 | 34596 ft | 467 kts | 17° |
| 2026-05-08 21:25 | -39.51500 | -60.14370 | 34596 ft | 469 kts | 17° |
| 2026-05-08 21:25 | -39.45283 | -60.11805 | 34588 ft | 468 kts | 17° |
| 2026-05-08 21:26 | -39.39098 | -60.09259 | 34587 ft | 468 kts | 17° |
| 2026-05-08 21:26 | -39.32893 | -60.06708 | 34586 ft | 467 kts | 17° |
| 2026-05-08 21:27 | -39.26685 | -60.04162 | 34574 ft | 467 kts | 17° |
| 2026-05-08 21:27 | -39.20516 | -60.01635 | 34574 ft | 467 kts | 17° |
| 2026-05-08 21:28 | -39.14336 | -59.99108 | 34582 ft | 465 kts | 17° |
| 2026-05-08 21:28 | -39.08165 | -59.96590 | 34589 ft | 465 kts | 17° |
| 2026-05-08 21:29 | -39.02007 | -59.94083 | 34592 ft | 465 kts | 17° |
| 2026-05-08 21:29 | -38.95829 | -59.91573 | 34583 ft | 465 kts | 17° |
| 2026-05-08 21:30 | -38.89671 | -59.89074 | 34589 ft | 466 kts | 17° |
| 2026-05-08 21:30 | -38.83456 | -59.86557 | 34600 ft | 466 kts | 17° |
| 2026-05-08 21:31 | -38.77278 | -59.84059 | 34604 ft | 465 kts | 16° |
| 2026-05-08 21:31 | -38.71137 | -59.81579 | 34598 ft | 465 kts | 16° |
| 2026-05-08 21:32 | -38.64990 | -59.79104 | 34595 ft | 465 kts | 16° |
| 2026-05-08 21:32 | -38.58834 | -59.76628 | 34605 ft | 464 kts | 16° |
| 2026-05-08 21:33 | -38.52671 | -59.74154 | 34609 ft | 464 kts | 16° |
| 2026-05-08 21:33 | -38.46487 | -59.71677 | 34611 ft | 464 kts | 16° |
| 2026-05-08 21:34 | -38.40350 | -59.69223 | 34600 ft | 465 kts | 16° |
| 2026-05-08 21:34 | -38.34164 | -59.66754 | 34608 ft | 464 kts | 16° |
| 2026-05-08 21:35 | -38.27989 | -59.64293 | 34602 ft | 464 kts | 16° |
| 2026-05-08 21:35 | -38.21816 | -59.61840 | 34604 ft | 463 kts | 15° |
| 2026-05-08 21:36 | -38.15686 | -59.59410 | 34606 ft | 463 kts | 15° |
| 2026-05-08 21:36 | -38.09515 | -59.56967 | 34605 ft | 463 kts | 15° |
| 2026-05-08 21:37 | -38.03382 | -59.54544 | 34608 ft | 463 kts | 15° |
| 2026-05-08 21:37 | -37.97258 | -59.52129 | 34620 ft | 462 kts | 15° |
| 2026-05-08 21:38 | -37.91122 | -59.49712 | 34619 ft | 463 kts | 15° |
| 2026-05-08 21:38 | -37.84975 | -59.47295 | 34625 ft | 463 kts | 15° |
| 2026-05-08 21:39 | -37.78816 | -59.44877 | 34631 ft | 461 kts | 15° |
| 2026-05-08 21:39 | -37.72702 | -59.42481 | 34631 ft | 462 kts | 15° |
| 2026-05-08 21:40 | -37.66546 | -59.40074 | 34622 ft | 461 kts | 15° |
| 2026-05-08 21:40 | -37.60428 | -59.37685 | 34616 ft | 461 kts | 15° |
| 2026-05-08 21:41 | -37.51262 | -59.34114 | 34623 ft | 461 kts | 14° |
| 2026-05-08 21:41 | -37.45160 | -59.31742 | 34624 ft | 461 kts | 14° |
| 2026-05-08 21:42 | -37.39045 | -59.29369 | 34628 ft | 461 kts | 14° |
| 2026-05-08 21:42 | -37.32892 | -59.26985 | 34626 ft | 461 kts | 14° |
| 2026-05-08 21:43 | -37.26767 | -59.24616 | 34635 ft | 459 kts | 14° |
| 2026-05-08 21:43 | -37.20690 | -59.22171 | 34649 ft | 460 kts | 17° |
| 2026-05-08 21:44 | -37.14769 | -59.19182 | 34652 ft | 461 kts | 20° |
| 2026-05-08 21:44 | -37.08873 | -59.15973 | 34654 ft | 461 kts | 21° |
| 2026-05-08 21:45 | -37.03023 | -59.12791 | 34661 ft | 460 kts | 21° |
| 2026-05-08 21:45 | -36.97136 | -59.09633 | 34671 ft | 461 kts | 20° |
| 2026-05-08 21:46 | -36.91236 | -59.06505 | 34674 ft | 460 kts | 20° |
| 2026-05-08 21:46 | -36.85286 | -59.03373 | 34669 ft | 461 kts | 20° |
| 2026-05-08 21:47 | -36.79392 | -59.00280 | 34671 ft | 459 kts | 20° |
| 2026-05-08 21:47 | -36.73519 | -58.97209 | 34669 ft | 458 kts | 20° |
| 2026-05-08 21:48 | -36.67621 | -58.94131 | 34666 ft | 459 kts | 20° |
| 2026-05-08 21:48 | -36.61765 | -58.91080 | 34670 ft | 458 kts | 20° |
| 2026-05-08 21:49 | -36.55868 | -58.88014 | 34668 ft | 458 kts | 20° |
| 2026-05-08 21:49 | -36.49963 | -58.84947 | 34670 ft | 458 kts | 20° |
| 2026-05-08 21:50 | -36.44107 | -58.81911 | 34675 ft | 457 kts | 20° |
| 2026-05-08 21:50 | -36.38224 | -58.78864 | 34680 ft | 457 kts | 20° |
| 2026-05-08 21:51 | -36.32364 | -58.75835 | 34681 ft | 456 kts | 20° |
| 2026-05-08 21:51 | -36.26512 | -58.72817 | 34685 ft | 455 kts | 19° |
| 2026-05-08 21:52 | -36.20700 | -58.69825 | 34392 ft | 454 kts | 20° |
| 2026-05-08 21:52 | -36.17780 | -58.68322 | 33940 ft | 452 kts | 20° |
| 2026-05-08 21:52 | -36.14874 | -58.66828 | 33342 ft | 453 kts | 20° |
| 2026-05-08 21:53 | -36.11982 | -58.65342 | 32827 ft | 452 kts | 20° |
| 2026-05-08 21:53 | -36.09083 | -58.63855 | 32232 ft | 451 kts | 20° |
| 2026-05-08 21:53 | -36.06202 | -58.62377 | 31669 ft | 449 kts | 20° |
| 2026-05-08 21:53 | -36.03333 | -58.60907 | 31114 ft | 447 kts | 20° |
| 2026-05-08 21:54 | -36.00478 | -58.59444 | 30561 ft | 445 kts | 20° |
| 2026-05-08 21:54 | -35.97633 | -58.57987 | 29987 ft | 442 kts | 20° |
| 2026-05-08 21:54 | -35.94770 | -58.56522 | 29422 ft | 439 kts | 20° |
| 2026-05-08 21:54 | -35.91969 | -58.55090 | 28874 ft | 436 kts | 20° |
| 2026-05-08 21:55 | -35.89177 | -58.53665 | 28326 ft | 433 kts | 20° |
| 2026-05-08 21:55 | -35.86398 | -58.52248 | 27783 ft | 430 kts | 20° |
| 2026-05-08 21:55 | -35.83656 | -58.50851 | 27252 ft | 426 kts | 20° |
| 2026-05-08 21:56 | -35.78214 | -58.48082 | 26190 ft | 420 kts | 20° |
| 2026-05-08 21:56 | -35.75609 | -58.46722 | 25612 ft | 420 kts | 22° |
| 2026-05-08 21:56 | -35.72981 | -58.45118 | 24973 ft | 421 kts | 26° |
| 2026-05-08 21:56 | -35.70457 | -58.43358 | 24391 ft | 421 kts | 28° |
| 2026-05-08 21:57 | -35.67961 | -58.41506 | 23848 ft | 422 kts | 30° |
| 2026-05-08 21:57 | -35.65453 | -58.39604 | 23307 ft | 420 kts | 30° |
| 2026-05-08 21:57 | -35.62999 | -58.37740 | 22789 ft | 418 kts | 30° |
| 2026-05-08 21:57 | -35.60533 | -58.35875 | 22230 ft | 414 kts | 30° |
| 2026-05-08 21:58 | -35.58078 | -58.34030 | 21694 ft | 405 kts | 29° |
| 2026-05-08 21:58 | -35.55716 | -58.32265 | 21191 ft | 396 kts | 29° |
| 2026-05-08 21:58 | -35.53372 | -58.30524 | 20674 ft | 387 kts | 29° |
| 2026-05-08 21:58 | -35.51104 | -58.28846 | 20167 ft | 380 kts | 28° |
| 2026-05-08 21:59 | -35.48849 | -58.27188 | 19660 ft | 376 kts | 28° |
| 2026-05-08 21:59 | -35.46620 | -58.25554 | 19165 ft | 371 kts | 28° |
| 2026-05-08 21:59 | -35.44414 | -58.23938 | 18677 ft | 366 kts | 28° |
| 2026-05-08 21:59 | -35.42133 | -58.22572 | 17869 ft | 367 kts | 14° |
| 2026-05-08 22:00 | -35.39645 | -58.22022 | 16943 ft | 370 kts | 2° |
| 2026-05-08 22:00 | -35.37071 | -58.21886 | 16053 ft | 369 kts | 358° |
| 2026-05-08 22:00 | -35.34560 | -58.21847 | 15972 ft | 347 kts | 358° |
| 2026-05-08 22:00 | -35.32237 | -58.21774 | 16424 ft | 329 kts | 359° |
| 2026-05-08 22:01 | -35.29900 | -58.21645 | 16364 ft | 340 kts | 0° |
| 2026-05-08 22:01 | -35.27562 | -58.21452 | 16188 ft | 333 kts | 1° |
| 2026-05-08 22:01 | -35.25319 | -58.21225 | 15920 ft | 316 kts | 2° |
| 2026-05-08 22:01 | -35.23175 | -58.20987 | 15742 ft | 299 kts | 2° |
| 2026-05-08 22:02 | -35.21184 | -58.20762 | 15736 ft | 279 kts | 1° |
| 2026-05-08 22:02 | -35.19255 | -58.20551 | 15729 ft | 280 kts | 1° |
| 2026-05-08 22:02 | -35.17300 | -58.20346 | 15729 ft | 280 kts | 1° |
| 2026-05-08 22:02 | -35.15351 | -58.20141 | 15730 ft | 280 kts | 1° |
| 2026-05-08 22:03 | -35.13414 | -58.19936 | 15731 ft | 280 kts | 1° |
| 2026-05-08 22:03 | -35.11471 | -58.19730 | 15734 ft | 280 kts | 1° |
| 2026-05-08 22:03 | -35.09527 | -58.19523 | 15733 ft | 280 kts | 1° |
| 2026-05-08 22:03 | -35.07594 | -58.19318 | 15730 ft | 280 kts | 1° |
| 2026-05-08 22:04 | -35.05655 | -58.19112 | 15727 ft | 280 kts | 1° |
| 2026-05-08 22:04 | -35.03670 | -58.18902 | 15405 ft | 284 kts | 1° |
| 2026-05-08 22:04 | -35.01687 | -58.18692 | 14693 ft | 290 kts | 2° |
| 2026-05-08 22:04 | -34.99670 | -58.18479 | 13949 ft | 295 kts | 2° |
| 2026-05-08 22:05 | -34.97618 | -58.18262 | 13186 ft | 298 kts | 2° |
| 2026-05-08 22:05 | -34.95550 | -58.18045 | 12467 ft | 299 kts | 1° |
| 2026-05-08 22:05 | -34.93484 | -58.17833 | 11790 ft | 300 kts | 1° |
| 2026-05-08 22:05 | -34.91407 | -58.17623 | 11104 ft | 300 kts | 0° |
| 2026-05-08 22:06 | -34.89319 | -58.17407 | 10393 ft | 301 kts | 1° |
| 2026-05-08 22:06 | -34.87248 | -58.16967 | 9664 ft | 306 kts | 10° |
| 2026-05-08 22:06 | -34.85188 | -58.16257 | 8967 ft | 307 kts | 13° |
| 2026-05-08 22:06 | -34.83158 | -58.15480 | 8248 ft | 306 kts | 13° |
| 2026-05-08 22:07 | -34.81157 | -58.14693 | 7541 ft | 306 kts | 13° |
| 2026-05-08 22:07 | -34.79120 | -58.13886 | 6822 ft | 306 kts | 14° |
| 2026-05-08 22:07 | -34.77102 | -58.13083 | 6088 ft | 306 kts | 13° |
| 2026-05-08 22:07 | -34.75069 | -58.12501 | 5369 ft | 299 kts | 357° |
| 2026-05-08 22:08 | -34.73038 | -58.12697 | 4667 ft | 287 kts | 338° |
| 2026-05-08 22:08 | -34.71312 | -58.13728 | 3973 ft | 275 kts | 317° |
| 2026-05-08 22:08 | -34.69891 | -58.15210 | 3269 ft | 268 kts | 307° |
| 2026-05-08 22:08 | -34.68729 | -58.16884 | 3017 ft | 247 kts | 302° |
| 2026-05-08 22:09 | -34.67738 | -58.18450 | 3025 ft | 222 kts | 301° |
| 2026-05-08 22:09 | -34.66845 | -58.19928 | 2769 ft | 210 kts | 299° |
| 2026-05-08 22:09 | -34.66104 | -58.21318 | 2924 ft | 178 kts | 294° |
| 2026-05-08 22:09 | -34.65521 | -58.22491 | 2989 ft | 152 kts | 293° |
| 2026-05-08 22:10 | -34.65007 | -58.23577 | 2842 ft | 146 kts | 291° |
| 2026-05-08 22:10 | -34.64529 | -58.24625 | 2832 ft | 130 kts | 291° |
| 2026-05-08 22:10 | -34.64086 | -58.25588 | 2876 ft | 135 kts | 291° |
| 2026-05-08 22:10 | -34.63614 | -58.26593 | 2672 ft | 141 kts | 292° |
| 2026-05-08 22:11 | -34.63129 | -58.27644 | 2492 ft | 141 kts | 291° |
| 2026-05-08 22:11 | -34.62681 | -58.28677 | 2304 ft | 139 kts | 291° |
| 2026-05-08 22:11 | -34.62213 | -58.29711 | 2117 ft | 142 kts | 294° |
| 2026-05-08 22:11 | -34.61681 | -58.30739 | 1865 ft | 144 kts | 296° |
| 2026-05-08 22:12 | -34.61127 | -58.31725 | 1645 ft | 142 kts | 298° |
| 2026-05-08 22:12 | -34.60552 | -58.32715 | 1364 ft | 145 kts | 300° |
| 2026-05-08 22:12 | -34.59988 | -58.33717 | 1174 ft | 142 kts | 296° |
| 2026-05-08 22:12 | -34.59477 | -58.34727 | 971 ft | 141 kts | 295° |
| 2026-05-08 22:13 | -34.58989 | -58.35760 | 797 ft | 141 kts | 296° |
| 2026-05-08 22:13 | -34.58477 | -58.36790 | 577 ft | 144 kts | 298° |
| 2026-05-08 22:13 | -34.57924 | -58.37795 | 386 ft | 143 kts | 298° |
| 2026-05-08 22:13 | -34.57387 | -58.38818 | 253 ft | 142 kts | 298° |
| 2026-05-08 22:14 | -34.56871 | -58.39824 | 131 ft | 140 kts | 298° |
| 2026-05-08 22:14 | -34.56351 | -58.40805 | 32 ft | 133 kts | 301° |
| 2026-05-08 22:14 | -34.55994 | -58.41458 | 26 ft | 49 kts | 304° |
| 2026-05-08 22:14 | -34.55885 | -58.41650 | 26 ft | 23 kts | 306° |
| 2026-05-08 22:15 | -34.55796 | -58.41800 | 26 ft | 21 kts | 303° |
| 2026-05-08 22:15 | -34.55748 | -58.41890 | 26 ft | 6 kts | 306° |
| 2026-05-08 22:15 | -34.55715 | -58.41914 | 26 ft | 5 kts | 2° |
| 2026-05-08 22:15 | -34.55683 | -58.41895 | 26 ft | 5 kts | 51° |
| 2026-05-08 22:16 | -34.55680 | -58.41853 | 26 ft | 5 kts | 107° |
| 2026-05-08 22:16 | -34.55703 | -58.41806 | 26 ft | 6 kts | 124° |
| 2026-05-08 22:16 | -34.55727 | -58.41756 | 26 ft | 7 kts | 118° |
| 2026-05-08 22:16 | -34.55750 | -58.41703 | 26 ft | 7 kts | 117° |
| 2026-05-08 22:17 | -34.55773 | -58.41649 | 26 ft | 7 kts | 111° |
| 2026-05-08 22:17 | -34.55770 | -58.41598 | 26 ft | 3 kts | 54° |